Olga Topic — ELSG4 — position and weather

sailwx.info

Track history (hours):
 
Tides and Currents Weather Stations Pressure Air Temp Water Temp Dewpoint Dewpoint Depression Visibility Wind Speed Wind Dir Waves Ship Positions

Olga Topic

Last reported at 2015-Jun-29 03:33 UTC. Time now 2015-Jul-02 23:07 UTC.
Position N 37°28' E 025°55'.

Length 186 m; draft 9.7 m.

Type: Cargo ship. MMSI: 636010327.

Date/timePositionNaut miles runAvg speedWind from/ knotsBaromVisibWave heightAir tempDewpointWater temp
2015-Jun-29 03:33N 37°28' E 025°55'1614.1
2015-Jun-29 02:24N 37°44' E 025°49'242 6.3
2015-Jun-27 12:18N 40°58' E 028°56'363 8.1
2015-Jun-25 15:21N 46°37' E 031°53'7 8.7
2015-Jun-25 14:33N 46°44' E 031°56'7 7.1
2015-Jun-25 13:33N 46°51' E 031°57'1 1.3
2015-Jun-25 12:33N 46°51' E 031°59'0 0.0
2015-Jun-25 11:32N 46°51' E 031°59'0 0.0
2015-Jun-25 10:32N 46°51' E 031°59'0 0.0
2015-Jun-25 09:32N 46°51' E 031°59'0 0.0
2015-Jun-25 08:32N 46°51' E 031°59'0 0.0
2015-Jun-25 07:32N 46°51' E 031°59'0 0.0
2015-Jun-25 06:32N 46°51' E 031°59'0 0.0
2015-Jun-25 05:32N 46°51' E 031°59'0 0.0
2015-Jun-25 04:31N 46°51' E 031°59'0 0.0
2015-Jun-25 03:31N 46°51' E 031°59'0 0.0
2015-Jun-25 02:31N 46°51' E 031°59'0 0.0
2015-Jun-25 01:31N 46°51' E 031°59'0 0.0
2015-Jun-25 00:31N 46°51' E 031°59'0 0.0
2015-Jun-24 23:31N 46°51' E 031°59'0 0.0
2015-Jun-24 22:31N 46°51' E 031°59'0 0.0
2015-Jun-24 21:31N 46°51' E 031°59'0 0.0
2015-Jun-24 20:31N 46°51' E 031°59'0 0.0
2015-Jun-24 19:31N 46°51' E 031°59'0 0.0
2015-Jun-24 18:31N 46°51' E 031°59'0 0.0
2015-Jun-24 17:31N 46°51' E 031°59'0 0.0
2015-Jun-24 16:31N 46°51' E 031°59'0 0.0
2015-Jun-24 15:31N 46°51' E 031°59'0 0.0
2015-Jun-24 14:31N 46°51' E 031°59'0 0.0
2015-Jun-24 13:31N 46°51' E 031°59'0 0.0
2015-Jun-24 12:31N 46°51' E 031°59'0 0.0
2015-Jun-24 11:31N 46°51' E 031°59'0 0.0
2015-Jun-24 10:31N 46°51' E 031°59'0 0.0
2015-Jun-24 09:31N 46°51' E 031°59'0 0.0
2015-Jun-24 08:31N 46°51' E 031°59'0 0.0
2015-Jun-24 07:31N 46°51' E 031°59'0 0.0
2015-Jun-24 06:31N 46°51' E 031°59'0 0.0
2015-Jun-24 05:31N 46°51' E 031°59'0 0.0
2015-Jun-24 04:31N 46°51' E 031°59'0 0.0
2015-Jun-24 03:31N 46°51' E 031°59'0 0.0
2015-Jun-24 02:31N 46°51' E 031°59'0 0.0
2015-Jun-24 01:31N 46°51' E 031°59'0 0.0
2015-Jun-24 00:31N 46°51' E 031°59'0 0.0
2015-Jun-23 23:31N 46°51' E 031°59'0 0.0
2015-Jun-23 22:31N 46°51' E 031°59'0 0.0
2015-Jun-23 21:31N 46°51' E 031°59'0 0.0
2015-Jun-23 20:31N 46°51' E 031°59'0 0.0
2015-Jun-23 19:31N 46°51' E 031°59'0 0.0
2015-Jun-23 19:04N 46°51' E 031°59'0 0.0
2015-Jun-22 19:33N 46°51' E 031°59'0 0.0
2015-Jun-22 18:33N 46°51' E 031°59'2 2.4
2015-Jun-22 17:33N 46°50' E 031°56'8 8.3
2015-Jun-22 16:33N 46°42' E 031°56'9 9.2
2015-Jun-22 15:31N 46°36' E 031°45'227 9.9
2015-Jun-21 16:33N 43°15' E 034°17'  
Track history (hours):
 
Tides and Currents Weather Stations Pressure Air Temp Water Temp Dewpoint Dewpoint Depression Visibility Wind Speed Wind Dir Waves Ship Positions

Olga Topic

Last reported at 2015-Jun-29 03:33 UTC. Time now 2015-Jul-02 23:07 UTC.
Position N 37°28' E 025°55'.

Length 186 m; draft 9.7 m.

Type: Cargo ship. MMSI: 636010327.

Date/timePositionNaut miles runAvg speedWind from/ knotsBaromVisibWave heightAir tempDewpointWater temp
2015-Jun-29 03:33N 37°28' E 025°55'1614.1
2015-Jun-29 02:24N 37°44' E 025°49'242 6.3
2015-Jun-27 12:18N 40°58' E 028°56'363 8.1
2015-Jun-25 15:21N 46°37' E 031°53'7 8.7
2015-Jun-25 14:33N 46°44' E 031°56'7 7.1
2015-Jun-25 13:33N 46°51' E 031°57'1 1.3
2015-Jun-25 12:33N 46°51' E 031°59'0 0.0
2015-Jun-25 11:32N 46°51' E 031°59'0 0.0
2015-Jun-25 10:32N 46°51' E 031°59'0 0.0
2015-Jun-25 09:32N 46°51' E 031°59'0 0.0
2015-Jun-25 08:32N 46°51' E 031°59'0 0.0
2015-Jun-25 07:32N 46°51' E 031°59'0 0.0
2015-Jun-25 06:32N 46°51' E 031°59'0 0.0
2015-Jun-25 05:32N 46°51' E 031°59'0 0.0
2015-Jun-25 04:31N 46°51' E 031°59'0 0.0
2015-Jun-25 03:31N 46°51' E 031°59'0 0.0
2015-Jun-25 02:31N 46°51' E 031°59'0 0.0
2015-Jun-25 01:31N 46°51' E 031°59'0 0.0
2015-Jun-25 00:31N 46°51' E 031°59'0 0.0
2015-Jun-24 23:31N 46°51' E 031°59'0 0.0
2015-Jun-24 22:31N 46°51' E 031°59'0 0.0
2015-Jun-24 21:31N 46°51' E 031°59'0 0.0
2015-Jun-24 20:31N 46°51' E 031°59'0 0.0
2015-Jun-24 19:31N 46°51' E 031°59'0 0.0
2015-Jun-24 18:31N 46°51' E 031°59'0 0.0
2015-Jun-24 17:31N 46°51' E 031°59'0 0.0
2015-Jun-24 16:31N 46°51' E 031°59'0 0.0
2015-Jun-24 15:31N 46°51' E 031°59'0 0.0
2015-Jun-24 14:31N 46°51' E 031°59'0 0.0
2015-Jun-24 13:31N 46°51' E 031°59'0 0.0
2015-Jun-24 12:31N 46°51' E 031°59'0 0.0
2015-Jun-24 11:31N 46°51' E 031°59'0 0.0
2015-Jun-24 10:31N 46°51' E 031°59'0 0.0
2015-Jun-24 09:31N 46°51' E 031°59'0 0.0
2015-Jun-24 08:31N 46°51' E 031°59'0 0.0
2015-Jun-24 07:31N 46°51' E 031°59'0 0.0
2015-Jun-24 06:31N 46°51' E 031°59'0 0.0
2015-Jun-24 05:31N 46°51' E 031°59'0 0.0
2015-Jun-24 04:31N 46°51' E 031°59'0 0.0
2015-Jun-24 03:31N 46°51' E 031°59'0 0.0
2015-Jun-24 02:31N 46°51' E 031°59'0 0.0
2015-Jun-24 01:31N 46°51' E 031°59'0 0.0
2015-Jun-24 00:31N 46°51' E 031°59'0 0.0
2015-Jun-23 23:31N 46°51' E 031°59'0 0.0
2015-Jun-23 22:31N 46°51' E 031°59'0 0.0
2015-Jun-23 21:31N 46°51' E 031°59'0 0.0
2015-Jun-23 20:31N 46°51' E 031°59'0 0.0
2015-Jun-23 19:31N 46°51' E 031°59'0 0.0
2015-Jun-23 19:04N 46°51' E 031°59'0 0.0
2015-Jun-22 19:33N 46°51' E 031°59'0 0.0
2015-Jun-22 18:33N 46°51' E 031°59'2 2.4
2015-Jun-22 17:33N 46°50' E 031°56'8 8.3
2015-Jun-22 16:33N 46°42' E 031°56'9 9.2
2015-Jun-22 15:31N 46°36' E 031°45'227 9.9
2015-Jun-21 16:33N 43°15' E 034°17'  

Dump ship's entire track history